sensor_id;sensor_type;location;lat;lon;timestamp;pressure;altitude;pressure_sealevel;temperature;humidity
63715;BME280;49858;48.956;9.076;2022-11-11T00:01:06;100192.09;;;8.84;100.00
63715;BME280;49858;48.956;9.076;2022-11-11T00:03:54;100186.94;;;8.83;100.00
63715;BME280;49858;48.956;9.076;2022-11-11T00:06:41;100191.69;;;8.91;100.00
63715;BME280;49858;48.956;9.076;2022-11-11T00:09:28;100186.03;;;8.74;100.00
63715;BME280;49858;48.956;9.076;2022-11-11T00:12:14;100186.69;;;8.93;100.00
63715;BME280;49858;48.956;9.076;2022-11-11T00:15:05;100181.22;;;8.93;100.00
63715;BME280;49858;48.956;9.076;2022-11-11T00:17:52;100197.22;;;8.77;100.00
63715;BME280;49858;48.956;9.076;2022-11-11T00:20:57;100196.97;;;9.01;100.00
63715;BME280;49858;48.956;9.076;2022-11-11T00:24:01;100191.75;;;9.13;100.00
63715;BME280;49858;48.956;9.076;2022-11-11T00:27:06;100190.84;;;9.04;100.00
63715;BME280;49858;48.956;9.076;2022-11-11T00:29:53;100189.31;;;8.34;100.00
63715;BME280;49858;48.956;9.076;2022-11-11T00:32:41;100196.59;;;8.25;100.00
63715;BME280;49858;48.956;9.076;2022-11-11T00:35:27;100203.22;;;8.65;100.00
63715;BME280;49858;48.956;9.076;2022-11-11T00:38:31;100206.81;;;8.38;100.00
63715;BME280;49858;48.956;9.076;2022-11-11T00:41:33;100205.34;;;8.68;100.00
63715;BME280;49858;48.956;9.076;2022-11-11T00:44:20;100205.22;;;8.87;100.00
63715;BME280;49858;48.956;9.076;2022-11-11T00:47:07;100209.88;;;9.01;100.00
63715;BME280;49858;48.956;9.076;2022-11-11T00:50:14;100211.66;;;9.19;100.00
63715;BME280;49858;48.956;9.076;2022-11-11T00:53:20;100222.03;;;8.58;100.00
63715;BME280;49858;48.956;9.076;2022-11-11T00:56:11;100219.38;;;8.39;100.00
63715;BME280;49858;48.956;9.076;2022-11-11T00:58:58;100230.28;;;8.12;100.00
63715;BME280;49858;48.956;9.076;2022-11-11T01:01:45;100226.16;;;8.28;100.00
63715;BME280;49858;48.956;9.076;2022-11-11T01:04:31;100221.66;;;8.18;100.00
63715;BME280;49858;48.956;9.076;2022-11-11T01:07:19;100211.41;;;7.97;100.00
63715;BME280;49858;48.956;9.076;2022-11-11T01:10:05;100213.97;;;7.74;100.00
63715;BME280;49858;48.956;9.076;2022-11-11T01:12:52;100214.28;;;7.40;100.00
63715;BME280;49858;48.956;9.076;2022-11-11T01:15:58;100214.66;;;7.33;100.00
63715;BME280;49858;48.956;9.076;2022-11-11T01:18:45;100220.34;;;7.37;100.00
63715;BME280;49858;48.956;9.076;2022-11-11T01:21:32;100220.53;;;7.59;100.00
63715;BME280;49858;48.956;9.076;2022-11-11T01:24:20;100225.28;;;7.86;100.00
63715;BME280;49858;48.956;9.076;2022-11-11T01:27:06;100229.28;;;8.08;100.00
63715;BME280;49858;48.956;9.076;2022-11-11T01:29:53;100233.53;;;8.00;100.00
63715;BME280;49858;48.956;9.076;2022-11-11T01:32:39;100233.91;;;7.93;100.00
63715;BME280;49858;48.956;9.076;2022-11-11T01:35:26;100233.25;;;7.69;100.00
63715;BME280;49858;48.956;9.076;2022-11-11T01:38:12;100222.06;;;7.65;100.00
63715;BME280;49858;48.956;9.076;2022-11-11T01:41:01;100226.09;;;7.87;100.00
63715;BME280;49858;48.956;9.076;2022-11-11T01:44:18;100216.66;;;7.93;100.00
63715;BME280;49858;48.956;9.076;2022-11-11T01:47:05;100222.03;;;7.52;100.00
63715;BME280;49858;48.956;9.076;2022-11-11T01:49:55;100215.91;;;7.41;100.00
63715;BME280;49858;48.956;9.076;2022-11-11T01:52:43;100212.28;;;7.46;100.00
63715;BME280;49858;48.956;9.076;2022-11-11T01:55:30;100225.72;;;7.61;100.00
63715;BME280;49858;48.956;9.076;2022-11-11T01:58:20;100228.47;;;7.42;100.00
63715;BME280;49858;48.956;9.076;2022-11-11T02:01:06;100221.81;;;7.48;100.00
63715;BME280;49858;48.956;9.076;2022-11-11T02:03:55;100222.84;;;7.33;100.00
63715;BME280;49858;48.956;9.076;2022-11-11T02:07:04;100230.34;;;7.28;100.00
63715;BME280;49858;48.956;9.076;2022-11-11T02:09:51;100228.81;;;7.73;100.00
63715;BME280;49858;48.956;9.076;2022-11-11T02:12:39;100238.28;;;7.62;100.00
63715;BME280;49858;48.956;9.076;2022-11-11T02:15:44;100235.53;;;7.29;100.00
63715;BME280;49858;48.956;9.076;2022-11-11T02:18:32;100240.69;;;7.50;100.00
63715;BME280;49858;48.956;9.076;2022-11-11T02:21:23;100240.06;;;7.53;100.00
63715;BME280;49858;48.956;9.076;2022-11-11T02:24:14;100237.00;;;8.06;100.00
63715;BME280;49858;48.956;9.076;2022-11-11T02:27:04;100233.19;;;7.88;100.00
63715;BME280;49858;48.956;9.076;2022-11-11T02:29:55;100233.16;;;7.74;100.00
63715;BME280;49858;48.956;9.076;2022-11-11T02:32:42;100228.44;;;7.61;100.00
63715;BME280;49858;48.956;9.076;2022-11-11T02:35:31;100230.56;;;6.94;100.00
63715;BME280;49858;48.956;9.076;2022-11-11T02:38:17;100219.63;;;7.12;100.00
63715;BME280;49858;48.956;9.076;2022-11-11T02:41:05;100221.81;;;7.10;100.00
63715;BME280;49858;48.956;9.076;2022-11-11T02:44:09;100226.63;;;6.81;100.00
63715;BME280;49858;48.956;9.076;2022-11-11T02:46:55;100226.38;;;7.01;100.00
63715;BME280;49858;48.956;9.076;2022-11-11T02:49:42;100218.19;;;7.15;100.00
63715;BME280;49858;48.956;9.076;2022-11-11T02:52:28;100214.81;;;7.23;100.00
63715;BME280;49858;48.956;9.076;2022-11-11T02:55:15;100210.59;;;7.12;100.00
63715;BME280;49858;48.956;9.076;2022-11-11T02:58:03;100204.41;;;7.06;100.00
63715;BME280;49858;48.956;9.076;2022-11-11T03:00:50;100209.09;;;7.01;100.00
63715;BME280;49858;48.956;9.076;2022-11-11T03:03:36;100214.06;;;6.99;100.00
63715;BME280;49858;48.956;9.076;2022-11-11T03:06:23;100208.28;;;7.00;100.00
63715;BME280;49858;48.956;9.076;2022-11-11T03:09:09;100202.47;;;6.88;100.00
63715;BME280;49858;48.956;9.076;2022-11-11T03:11:56;100206.09;;;7.21;100.00
63715;BME280;49858;48.956;9.076;2022-11-11T03:14:44;100199.88;;;7.15;100.00
63715;BME280;49858;48.956;9.076;2022-11-11T03:17:31;100209.50;;;6.94;100.00
63715;BME280;49858;48.956;9.076;2022-11-11T03:20:25;100203.34;;;7.02;100.00
63715;BME280;49858;48.956;9.076;2022-11-11T03:23:29;100210.53;;;6.98;100.00
63715;BME280;49858;48.956;9.076;2022-11-11T03:26:15;100207.63;;;6.71;100.00
63715;BME280;49858;48.956;9.076;2022-11-11T03:29:01;100208.13;;;6.73;100.00
63715;BME280;49858;48.956;9.076;2022-11-11T03:31:49;100205.78;;;7.04;100.00
63715;BME280;49858;48.956;9.076;2022-11-11T03:34:35;100202.41;;;6.93;100.00
63715;BME280;49858;48.956;9.076;2022-11-11T03:37:21;100206.56;;;6.66;100.00
63715;BME280;49858;48.956;9.076;2022-11-11T03:40:25;100205.13;;;6.93;100.00
63715;BME280;49858;48.956;9.076;2022-11-11T03:43:13;100212.44;;;7.16;100.00
63715;BME280;49858;48.956;9.076;2022-11-11T03:46:01;100223.16;;;7.32;100.00
63715;BME280;49858;48.956;9.076;2022-11-11T03:48:49;100234.03;;;7.18;100.00
63715;BME280;49858;48.956;9.076;2022-11-11T03:51:35;100233.69;;;7.25;100.00
63715;BME280;49858;48.956;9.076;2022-11-11T03:54:21;100234.47;;;6.87;100.00
63715;BME280;49858;48.956;9.076;2022-11-11T03:57:08;100238.84;;;7.45;100.00
63715;BME280;49858;48.956;9.076;2022-11-11T04:00:14;100247.03;;;7.64;100.00
63715;BME280;49858;48.956;9.076;2022-11-11T04:03:02;100245.63;;;7.29;100.00
63715;BME280;49858;48.956;9.076;2022-11-11T04:06:08;100245.06;;;7.13;100.00
63715;BME280;49858;48.956;9.076;2022-11-11T04:09:13;100246.53;;;7.43;100.00
63715;BME280;49858;48.956;9.076;2022-11-11T04:12:17;100248.84;;;6.98;100.00
63715;BME280;49858;48.956;9.076;2022-11-11T04:15:04;100250.22;;;6.53;100.00
63715;BME280;49858;48.956;9.076;2022-11-11T04:18:22;100240.56;;;6.36;100.00
63715;BME280;49858;48.956;9.076;2022-11-11T04:21:30;100251.59;;;6.74;100.00
63715;BME280;49858;48.956;9.076;2022-11-11T04:24:27;100250.44;;;6.80;100.00
63715;BME280;49858;48.956;9.076;2022-11-11T04:27:31;100244.69;;;7.01;100.00
63715;BME280;49858;48.956;9.076;2022-11-11T04:30:17;100252.53;;;7.07;100.00
63715;BME280;49858;48.956;9.076;2022-11-11T04:33:03;100244.53;;;6.92;100.00
63715;BME280;49858;48.956;9.076;2022-11-11T04:35:49;100248.91;;;7.12;100.00
63715;BME280;49858;48.956;9.076;2022-11-11T04:38:37;100253.50;;;7.16;100.00
63715;BME280;49858;48.956;9.076;2022-11-11T04:41:41;100254.75;;;7.76;100.00
63715;BME280;49858;48.956;9.076;2022-11-11T04:44:47;100249.09;;;7.72;100.00
63715;BME280;49858;48.956;9.076;2022-11-11T04:47:52;100258.22;;;7.67;100.00
63715;BME280;49858;48.956;9.076;2022-11-11T04:50:40;100273.84;;;7.67;100.00
63715;BME280;49858;48.956;9.076;2022-11-11T04:53:27;100275.63;;;7.58;100.00
63715;BME280;49858;48.956;9.076;2022-11-11T04:56:15;100280.94;;;7.49;100.00
63715;BME280;49858;48.956;9.076;2022-11-11T04:59:19;100283.06;;;7.52;100.00
63715;BME280;49858;48.956;9.076;2022-11-11T05:02:06;100285.19;;;7.74;100.00
63715;BME280;49858;48.956;9.076;2022-11-11T05:05:11;100282.56;;;8.02;100.00
63715;BME280;49858;48.956;9.076;2022-11-11T05:07:57;100287.69;;;8.36;100.00
63715;BME280;49858;48.956;9.076;2022-11-11T05:11:01;100286.50;;;8.42;100.00
63715;BME280;49858;48.956;9.076;2022-11-11T05:13:48;100279.88;;;8.29;100.00
63715;BME280;49858;48.956;9.076;2022-11-11T05:16:54;100290.38;;;8.08;100.00
63715;BME280;49858;48.956;9.076;2022-11-11T05:19:58;100302.38;;;7.61;100.00
63715;BME280;49858;48.956;9.076;2022-11-11T05:23:01;100317.94;;;7.47;100.00
63715;BME280;49858;48.956;9.076;2022-11-11T05:25:48;100313.25;;;7.28;100.00
63715;BME280;49858;48.956;9.076;2022-11-11T05:28:33;100315.31;;;6.99;100.00
63715;BME280;49858;48.956;9.076;2022-11-11T05:31:21;100316.41;;;6.50;100.00
63715;BME280;49858;48.956;9.076;2022-11-11T05:34:07;100325.09;;;6.28;100.00
63715;BME280;49858;48.956;9.076;2022-11-11T05:36:53;100321.94;;;6.45;100.00
63715;BME280;49858;48.956;9.076;2022-11-11T05:39:40;100325.91;;;6.81;100.00
63715;BME280;49858;48.956;9.076;2022-11-11T05:42:26;100330.53;;;7.05;100.00
63715;BME280;49858;48.956;9.076;2022-11-11T05:45:13;100332.22;;;7.01;100.00
63715;BME280;49858;48.956;9.076;2022-11-11T05:48:01;100339.88;;;6.80;100.00
63715;BME280;49858;48.956;9.076;2022-11-11T05:50:48;100342.09;;;6.49;100.00
63715;BME280;49858;48.956;9.076;2022-11-11T05:53:34;100342.16;;;6.97;100.00
63715;BME280;49858;48.956;9.076;2022-11-11T05:56:20;100338.78;;;7.42;100.00
63715;BME280;49858;48.956;9.076;2022-11-11T05:59:06;100346.28;;;7.56;100.00
63715;BME280;49858;48.956;9.076;2022-11-11T06:01:53;100349.03;;;7.56;100.00
63715;BME280;49858;48.956;9.076;2022-11-11T06:04:40;100348.59;;;7.67;100.00
63715;BME280;49858;48.956;9.076;2022-11-11T06:07:26;100351.84;;;7.69;100.00
63715;BME280;49858;48.956;9.076;2022-11-11T06:10:13;100359.47;;;7.73;100.00
63715;BME280;49858;48.956;9.076;2022-11-11T06:13:17;100376.00;;;7.01;100.00
63715;BME280;49858;48.956;9.076;2022-11-11T06:16:04;100377.25;;;7.32;100.00
63715;BME280;49858;48.956;9.076;2022-11-11T06:18:51;100382.34;;;7.63;100.00
63715;BME280;49858;48.956;9.076;2022-11-11T06:21:39;100378.41;;;6.25;100.00
63715;BME280;49858;48.956;9.076;2022-11-11T06:24:44;100384.91;;;6.63;100.00
63715;BME280;49858;48.956;9.076;2022-11-11T06:27:51;100377.13;;;7.42;100.00
63715;BME280;49858;48.956;9.076;2022-11-11T06:30:37;100367.22;;;7.84;100.00
63715;BME280;49858;48.956;9.076;2022-11-11T06:33:35;100363.56;;;8.08;100.00
63715;BME280;49858;48.956;9.076;2022-11-11T06:36:22;100370.47;;;8.05;100.00
63715;BME280;49858;48.956;9.076;2022-11-11T06:39:09;100360.41;;;8.01;100.00
63715;BME280;49858;48.956;9.076;2022-11-11T06:41:56;100362.34;;;7.81;100.00
63715;BME280;49858;48.956;9.076;2022-11-11T06:44:43;100369.81;;;7.76;100.00
63715;BME280;49858;48.956;9.076;2022-11-11T06:47:29;100382.53;;;6.23;100.00
63715;BME280;49858;48.956;9.076;2022-11-11T06:50:16;100395.56;;;4.82;100.00
63715;BME280;49858;48.956;9.076;2022-11-11T06:53:03;100397.34;;;5.23;100.00
63715;BME280;49858;48.956;9.076;2022-11-11T06:55:52;100397.78;;;5.95;100.00
63715;BME280;49858;48.956;9.076;2022-11-11T06:58:38;100398.47;;;5.66;100.00
63715;BME280;49858;48.956;9.076;2022-11-11T07:01:24;100394.44;;;6.03;100.00
63715;BME280;49858;48.956;9.076;2022-11-11T07:04:11;100391.09;;;6.45;100.00
63715;BME280;49858;48.956;9.076;2022-11-11T07:06:57;100386.38;;;6.80;100.00
63715;BME280;49858;48.956;9.076;2022-11-11T07:09:44;100386.25;;;7.14;100.00
63715;BME280;49858;48.956;9.076;2022-11-11T07:12:31;100391.72;;;7.14;100.00
63715;BME280;49858;48.956;9.076;2022-11-11T07:15:17;100380.81;;;7.33;100.00
63715;BME280;49858;48.956;9.076;2022-11-11T07:18:04;100387.47;;;6.79;100.00
63715;BME280;49858;48.956;9.076;2022-11-11T07:20:51;100396.16;;;5.94;100.00
63715;BME280;49858;48.956;9.076;2022-11-11T07:23:37;100402.84;;;6.46;100.00
63715;BME280;49858;48.956;9.076;2022-11-11T07:26:23;100398.50;;;6.98;100.00
63715;BME280;49858;48.956;9.076;2022-11-11T07:29:11;100390.84;;;7.61;100.00
63715;BME280;49858;48.956;9.076;2022-11-11T07:31:59;100401.44;;;7.68;100.00
63715;BME280;49858;48.956;9.076;2022-11-11T07:34:48;100395.88;;;7.92;100.00
63715;BME280;49858;48.956;9.076;2022-11-11T07:37:35;100396.00;;;8.19;100.00
63715;BME280;49858;48.956;9.076;2022-11-11T07:40:22;100391.16;;;8.49;100.00
63715;BME280;49858;48.956;9.076;2022-11-11T07:43:08;100396.00;;;8.38;100.00
63715;BME280;49858;48.956;9.076;2022-11-11T07:45:56;100392.88;;;8.26;100.00
63715;BME280;49858;48.956;9.076;2022-11-11T07:48:42;100394.94;;;8.34;100.00
63715;BME280;49858;48.956;9.076;2022-11-11T07:51:28;100398.47;;;8.54;100.00
63715;BME280;49858;48.956;9.076;2022-11-11T07:54:15;100388.59;;;8.39;100.00
63715;BME280;49858;48.956;9.076;2022-11-11T07:57:01;100397.53;;;8.44;100.00
63715;BME280;49858;48.956;9.076;2022-11-11T07:59:47;100393.84;;;8.82;100.00
63715;BME280;49858;48.956;9.076;2022-11-11T08:02:38;100396.75;;;8.58;100.00
63715;BME280;49858;48.956;9.076;2022-11-11T08:05:24;100399.69;;;8.29;100.00
63715;BME280;49858;48.956;9.076;2022-11-11T08:08:10;100399.88;;;8.51;100.00
63715;BME280;49858;48.956;9.076;2022-11-11T08:10:56;100401.38;;;8.90;100.00
63715;BME280;49858;48.956;9.076;2022-11-11T08:13:43;100395.72;;;9.28;100.00
63715;BME280;49858;48.956;9.076;2022-11-11T08:16:28;100397.09;;;9.53;100.00
63715;BME280;49858;48.956;9.076;2022-11-11T08:19:16;100394.34;;;9.53;100.00
63715;BME280;49858;48.956;9.076;2022-11-11T08:22:02;100396.47;;;9.69;100.00
63715;BME280;49858;48.956;9.076;2022-11-11T08:24:49;100386.22;;;9.47;100.00
63715;BME280;49858;48.956;9.076;2022-11-11T08:27:55;100393.47;;;9.80;100.00
63715;BME280;49858;48.956;9.076;2022-11-11T08:30:42;100397.34;;;9.79;100.00
63715;BME280;49858;48.956;9.076;2022-11-11T08:33:28;100395.66;;;9.91;100.00
63715;BME280;49858;48.956;9.076;2022-11-11T08:36:20;100398.56;;;10.45;100.00
63715;BME280;49858;48.956;9.076;2022-11-11T08:39:08;100406.28;;;10.65;100.00
63715;BME280;49858;48.956;9.076;2022-11-11T08:41:55;100407.50;;;11.21;100.00
63715;BME280;49858;48.956;9.076;2022-11-11T08:44:42;100407.84;;;11.86;100.00
63715;BME280;49858;48.956;9.076;2022-11-11T08:47:29;100403.78;;;11.83;100.00
63715;BME280;49858;48.956;9.076;2022-11-11T08:50:15;100399.84;;;11.75;100.00
63715;BME280;49858;48.956;9.076;2022-11-11T08:53:04;100405.16;;;9.85;100.00
63715;BME280;49858;48.956;9.076;2022-11-11T08:55:51;100406.56;;;12.00;100.00
63715;BME280;49858;48.956;9.076;2022-11-11T08:58:37;100399.78;;;13.26;100.00
63715;BME280;49858;48.956;9.076;2022-11-11T09:01:23;100406.59;;;13.88;100.00
63715;BME280;49858;48.956;9.076;2022-11-11T09:04:09;100397.41;;;14.17;100.00
63715;BME280;49858;48.956;9.076;2022-11-11T09:07:16;100394.63;;;13.96;100.00
63715;BME280;49858;48.956;9.076;2022-11-11T09:10:05;100384.59;;;14.25;100.00
63715;BME280;49858;48.956;9.076;2022-11-11T09:12:55;100385.81;;;14.36;100.00
63715;BME280;49858;48.956;9.076;2022-11-11T09:15:41;100381.31;;;14.44;100.00
63715;BME280;49858;48.956;9.076;2022-11-11T09:18:27;100379.56;;;14.60;100.00
63715;BME280;49858;48.956;9.076;2022-11-11T09:21:17;100379.63;;;14.85;100.00
63715;BME280;49858;48.956;9.076;2022-11-11T09:24:04;100386.56;;;15.03;100.00
63715;BME280;49858;48.956;9.076;2022-11-11T09:26:52;100384.03;;;15.47;100.00
63715;BME280;49858;48.956;9.076;2022-11-11T09:29:39;100385.44;;;15.41;100.00
63715;BME280;49858;48.956;9.076;2022-11-11T09:32:25;100383.69;;;15.48;100.00
63715;BME280;49858;48.956;9.076;2022-11-11T09:35:11;100374.31;;;15.65;100.00
63715;BME280;49858;48.956;9.076;2022-11-11T09:37:59;100365.59;;;15.91;100.00
63715;BME280;49858;48.956;9.076;2022-11-11T09:40:51;100368.78;;;15.41;100.00
63715;BME280;49858;48.956;9.076;2022-11-11T09:43:47;100371.22;;;16.07;100.00
63715;BME280;49858;48.956;9.076;2022-11-11T09:46:43;100365.47;;;13.78;100.00
63715;BME280;49858;48.956;9.076;2022-11-11T09:49:35;100372.22;;;15.87;100.00
63715;BME280;49858;48.956;9.076;2022-11-11T09:52:28;100363.91;;;16.43;100.00
63715;BME280;49858;48.956;9.076;2022-11-11T09:55:20;100359.97;;;16.59;100.00
63715;BME280;49858;48.956;9.076;2022-11-11T09:58:12;100359.88;;;16.56;100.00
63715;BME280;49858;48.956;9.076;2022-11-11T10:01:06;100357.69;;;16.93;100.00
63715;BME280;49858;48.956;9.076;2022-11-11T10:03:59;100361.81;;;17.15;100.00
63715;BME280;49858;48.956;9.076;2022-11-11T10:06:52;100370.25;;;17.19;100.00
63715;BME280;49858;48.956;9.076;2022-11-11T10:09:45;100368.28;;;17.54;100.00
63715;BME280;49858;48.956;9.076;2022-11-11T10:12:41;100370.66;;;17.87;100.00
63715;BME280;49858;48.956;9.076;2022-11-11T10:15:34;100373.81;;;18.25;98.25
63715;BME280;49858;48.956;9.076;2022-11-11T10:18:40;100373.16;;;18.31;94.51
63715;BME280;49858;48.956;9.076;2022-11-11T10:21:34;100375.97;;;17.42;100.00
63715;BME280;49858;48.956;9.076;2022-11-11T10:24:46;100364.38;;;17.91;97.62
63715;BME280;49858;48.956;9.076;2022-11-11T10:27:35;100370.69;;;18.26;93.45
63715;BME280;49858;48.956;9.076;2022-11-11T10:30:24;100365.22;;;18.53;91.36
63715;BME280;49858;48.956;9.076;2022-11-11T10:33:19;100373.91;;;18.28;98.96
63715;BME280;49858;48.956;9.076;2022-11-11T10:36:14;100369.97;;;17.24;100.00
63715;BME280;49858;48.956;9.076;2022-11-11T10:39:04;100367.50;;;19.12;92.54
63715;BME280;49858;48.956;9.076;2022-11-11T10:41:51;100371.75;;;18.41;97.70
63715;BME280;49858;48.956;9.076;2022-11-11T10:44:37;100375.78;;;19.58;87.70
63715;BME280;49858;48.956;9.076;2022-11-11T10:47:34;100357.34;;;18.78;92.61
63715;BME280;49858;48.956;9.076;2022-11-11T10:50:28;100361.06;;;19.88;85.34
63715;BME280;49858;48.956;9.076;2022-11-11T10:53:21;100356.91;;;20.38;81.27
63715;BME280;49858;48.956;9.076;2022-11-11T10:56:16;100346.88;;;20.75;78.77
63715;BME280;49858;48.956;9.076;2022-11-11T10:59:12;100343.75;;;20.05;81.29
63715;BME280;49858;48.956;9.076;2022-11-11T11:02:06;100347.94;;;19.92;79.83
63715;BME280;49858;48.956;9.076;2022-11-11T11:04:57;100353.59;;;20.29;83.39
63715;BME280;49858;48.956;9.076;2022-11-11T11:07:48;100337.25;;;20.31;79.98
63715;BME280;49858;48.956;9.076;2022-11-11T11:10:40;100342.31;;;20.19;80.97
63715;BME280;49858;48.956;9.076;2022-11-11T11:13:33;100326.44;;;21.08;76.51
63715;BME280;49858;48.956;9.076;2022-11-11T11:16:23;100326.31;;;21.49;72.38
63715;BME280;49858;48.956;9.076;2022-11-11T11:19:15;100325.44;;;21.34;74.02
63715;BME280;49858;48.956;9.076;2022-11-11T11:22:02;100319.53;;;20.98;73.51
63715;BME280;49858;48.956;9.076;2022-11-11T11:24:49;100310.81;;;21.03;78.08
63715;BME280;49858;48.956;9.076;2022-11-11T11:27:36;100329.06;;;20.93;74.84
63715;BME280;49858;48.956;9.076;2022-11-11T11:30:24;100327.84;;;21.39;73.99
63715;BME280;49858;48.956;9.076;2022-11-11T11:33:11;100319.03;;;20.85;76.34
63715;BME280;49858;48.956;9.076;2022-11-11T11:36:12;100330.47;;;20.70;76.32
63715;BME280;49858;48.956;9.076;2022-11-11T11:39:00;100321.91;;;20.14;79.00
63715;BME280;49858;48.956;9.076;2022-11-11T11:41:48;100332.00;;;19.92;81.50
63715;BME280;49858;48.956;9.076;2022-11-11T11:44:38;100324.34;;;20.53;81.92
63715;BME280;49858;48.956;9.076;2022-11-11T11:47:37;100321.78;;;22.03;71.85
63715;BME280;49858;48.956;9.076;2022-11-11T11:50:38;100311.94;;;22.62;66.64
63715;BME280;49858;48.956;9.076;2022-11-11T11:53:48;100314.38;;;23.35;62.41
63715;BME280;49858;48.956;9.076;2022-11-11T11:56:41;100309.03;;;23.87;59.81
63715;BME280;49858;48.956;9.076;2022-11-11T11:59:35;100308.63;;;24.66;54.65
63715;BME280;49858;48.956;9.076;2022-11-11T12:02:49;100303.66;;;25.29;53.11
63715;BME280;49858;48.956;9.076;2022-11-11T12:05:43;100317.94;;;25.08;52.98
63715;BME280;49858;48.956;9.076;2022-11-11T12:08:41;100317.53;;;23.55;61.26
63715;BME280;49858;48.956;9.076;2022-11-11T12:11:37;100324.91;;;24.22;57.88
63715;BME280;49858;48.956;9.076;2022-11-11T12:14:41;100315.16;;;23.32;58.53
63715;BME280;49858;48.956;9.076;2022-11-11T12:17:42;100319.13;;;23.60;59.48
63715;BME280;49858;48.956;9.076;2022-11-11T12:20:35;100319.63;;;23.01;61.78
63715;BME280;49858;48.956;9.076;2022-11-11T12:23:48;100311.41;;;23.96;57.29
63715;BME280;49858;48.956;9.076;2022-11-11T12:26:42;100312.78;;;23.09;60.38
63715;BME280;49858;48.956;9.076;2022-11-11T12:29:40;100313.78;;;21.98;64.65
63715;BME280;49858;48.956;9.076;2022-11-11T12:32:53;100316.41;;;22.95;65.75
63715;BME280;49858;48.956;9.076;2022-11-11T12:35:57;100308.78;;;23.17;65.20
63715;BME280;49858;48.956;9.076;2022-11-11T12:38:55;100305.94;;;22.50;66.11
63715;BME280;49858;48.956;9.076;2022-11-11T12:41:50;100310.91;;;21.87;66.19
63715;BME280;49858;48.956;9.076;2022-11-11T12:44:49;100302.63;;;21.35;70.62
63715;BME280;49858;48.956;9.076;2022-11-11T12:47:48;100309.47;;;21.38;73.83
63715;BME280;49858;48.956;9.076;2022-11-11T12:50:40;100297.97;;;20.99;80.40
63715;BME280;49858;48.956;9.076;2022-11-11T12:53:33;100302.50;;;20.70;80.94
63715;BME280;49858;48.956;9.076;2022-11-11T12:56:26;100300.66;;;20.43;79.49
63715;BME280;49858;48.956;9.076;2022-11-11T12:59:22;100308.00;;;19.31;88.46
63715;BME280;49858;48.956;9.076;2022-11-11T13:02:25;100296.13;;;19.38;91.49
63715;BME280;49858;48.956;9.076;2022-11-11T13:05:20;100302.69;;;19.49;87.33
63715;BME280;49858;48.956;9.076;2022-11-11T13:08:28;100296.59;;;18.68;96.17
63715;BME280;49858;48.956;9.076;2022-11-11T13:11:27;100294.69;;;18.72;97.55
63715;BME280;49858;48.956;9.076;2022-11-11T13:14:30;100285.53;;;18.94;95.98
63715;BME280;49858;48.956;9.076;2022-11-11T13:17:17;100292.28;;;18.93;96.30
63715;BME280;49858;48.956;9.076;2022-11-11T13:20:14;100288.44;;;18.55;100.00
63715;BME280;49858;48.956;9.076;2022-11-11T13:23:07;100285.13;;;18.27;100.00
63715;BME280;49858;48.956;9.076;2022-11-11T13:25:57;100283.91;;;18.47;96.60
63715;BME280;49858;48.956;9.076;2022-11-11T13:28:48;100290.66;;;19.45;92.51
63715;BME280;49858;48.956;9.076;2022-11-11T13:31:36;100280.03;;;19.54;88.58
63715;BME280;49858;48.956;9.076;2022-11-11T13:34:25;100288.16;;;19.63;88.02
63715;BME280;49858;48.956;9.076;2022-11-11T13:37:20;100283.09;;;20.06;86.96
63715;BME280;49858;48.956;9.076;2022-11-11T13:40:25;100281.78;;;19.96;84.28
63715;BME280;49858;48.956;9.076;2022-11-11T13:43:17;100279.28;;;20.25;84.14
63715;BME280;49858;48.956;9.076;2022-11-11T13:46:06;100277.03;;;20.37;85.14
63715;BME280;49858;48.956;9.076;2022-11-11T13:48:57;100283.94;;;20.13;84.72
63715;BME280;49858;48.956;9.076;2022-11-11T13:51:45;100286.00;;;19.83;84.03
63715;BME280;49858;48.956;9.076;2022-11-11T13:54:33;100279.84;;;19.13;86.44
63715;BME280;49858;48.956;9.076;2022-11-11T13:57:23;100288.66;;;19.15;89.92
63715;BME280;49858;48.956;9.076;2022-11-11T14:00:24;100279.53;;;18.92;91.24
63715;BME280;49858;48.956;9.076;2022-11-11T14:03:29;100283.91;;;18.93;93.03
63715;BME280;49858;48.956;9.076;2022-11-11T14:09:57;100286.00;;;19.00;93.85
63715;BME280;49858;48.956;9.076;2022-11-11T14:12:46;100285.06;;;19.15;91.62
63715;BME280;49858;48.956;9.076;2022-11-11T14:15:39;100280.75;;;19.78;86.13
63715;BME280;49858;48.956;9.076;2022-11-11T14:18:37;100284.44;;;20.23;85.02
63715;BME280;49858;48.956;9.076;2022-11-11T14:21:47;100279.50;;;20.46;83.83
63715;BME280;49858;48.956;9.076;2022-11-11T14:24:38;100286.16;;;20.72;82.49
63715;BME280;49858;48.956;9.076;2022-11-11T14:27:27;100289.19;;;21.00;79.67
63715;BME280;49858;48.956;9.076;2022-11-11T14:30:37;100299.47;;;21.40;75.63
63715;BME280;49858;48.956;9.076;2022-11-11T14:33:37;100306.63;;;20.08;86.06
63715;BME280;49858;48.956;9.076;2022-11-11T14:36:31;100296.44;;;20.60;83.29
63715;BME280;49858;48.956;9.076;2022-11-11T14:39:36;100299.03;;;20.80;83.28
63715;BME280;49858;48.956;9.076;2022-11-11T14:42:45;100302.28;;;20.89;82.05
63715;BME280;49858;48.956;9.076;2022-11-11T14:46:00;100314.69;;;19.80;92.81
63715;BME280;49858;48.956;9.076;2022-11-11T14:48:55;100308.06;;;19.35;99.29
63715;BME280;49858;48.956;9.076;2022-11-11T14:51:51;100307.97;;;19.05;100.00
63715;BME280;49858;48.956;9.076;2022-11-11T14:54:52;100292.69;;;18.69;100.00
63715;BME280;49858;48.956;9.076;2022-11-11T14:57:41;100298.16;;;18.65;100.00
63715;BME280;49858;48.956;9.076;2022-11-11T15:00:43;100299.06;;;18.27;100.00